sensor_id;sensor_type;location;lat;lon;timestamp;pressure;altitude;pressure_sealevel;temperature;humidity
65760;BME280;52496;51.082;5.066;2023-08-17T00:02:03;101760.03;;;20.52;99.94
65760;BME280;52496;51.082;5.066;2023-08-17T00:04:36;101768.81;;;20.54;99.58
65760;BME280;52496;51.082;5.066;2023-08-17T00:07:07;101764.00;;;20.50;99.48
65760;BME280;52496;51.082;5.066;2023-08-17T00:09:39;101772.97;;;20.50;99.30
65760;BME280;52496;51.082;5.066;2023-08-17T00:12:10;101771.78;;;20.46;100.00
65760;BME280;52496;51.082;5.066;2023-08-17T00:14:43;101766.06;;;20.36;100.00
65760;BME280;52496;51.082;5.066;2023-08-17T00:17:16;101759.88;;;20.29;100.00
65760;BME280;52496;51.082;5.066;2023-08-17T00:19:46;101756.63;;;20.20;100.00
65760;BME280;52496;51.082;5.066;2023-08-17T00:22:17;101751.50;;;20.12;100.00
65760;BME280;52496;51.082;5.066;2023-08-17T00:24:48;101762.19;;;20.07;100.00
65760;BME280;52496;51.082;5.066;2023-08-17T00:27:18;101760.00;;;19.97;100.00
65760;BME280;52496;51.082;5.066;2023-08-17T00:29:49;101755.69;;;19.89;100.00
65760;BME280;52496;51.082;5.066;2023-08-17T00:32:19;101758.72;;;19.81;100.00
65760;BME280;52496;51.082;5.066;2023-08-17T00:34:50;101763.72;;;19.78;100.00
65760;BME280;52496;51.082;5.066;2023-08-17T00:37:21;101772.03;;;19.83;100.00
65760;BME280;52496;51.082;5.066;2023-08-17T00:39:51;101766.00;;;19.81;100.00
65760;BME280;52496;51.082;5.066;2023-08-17T00:42:22;101764.97;;;19.82;100.00
65760;BME280;52496;51.082;5.066;2023-08-17T00:44:52;101765.41;;;19.79;100.00
65760;BME280;52496;51.082;5.066;2023-08-17T00:50:04;101778.31;;;19.83;100.00
65760;BME280;52496;51.082;5.066;2023-08-17T00:52:35;101770.00;;;19.78;100.00
65760;BME280;52496;51.082;5.066;2023-08-17T00:55:05;101780.63;;;19.80;100.00
65760;BME280;52496;51.082;5.066;2023-08-17T00:57:36;101785.00;;;19.81;100.00
65760;BME280;52496;51.082;5.066;2023-08-17T01:00:08;101777.09;;;19.79;100.00
65760;BME280;52496;51.082;5.066;2023-08-17T01:02:41;101789.16;;;19.83;100.00
65760;BME280;52496;51.082;5.066;2023-08-17T01:05:12;101782.91;;;19.83;100.00
65760;BME280;52496;51.082;5.066;2023-08-17T01:07:45;101785.00;;;19.81;100.00
65760;BME280;52496;51.082;5.066;2023-08-17T01:10:16;101776.28;;;19.79;100.00
65760;BME280;52496;51.082;5.066;2023-08-17T01:13:00;101784.09;;;19.87;100.00
65760;BME280;52496;51.082;5.066;2023-08-17T01:15:37;101782.47;;;19.86;100.00
65760;BME280;52496;51.082;5.066;2023-08-17T01:18:17;101757.84;;;19.81;100.00
65760;BME280;52496;51.082;5.066;2023-08-17T01:20:50;101770.41;;;19.82;100.00
65760;BME280;52496;51.082;5.066;2023-08-17T01:23:21;101768.72;;;19.81;100.00
65760;BME280;52496;51.082;5.066;2023-08-17T01:25:54;101763.72;;;19.78;100.00
65760;BME280;52496;51.082;5.066;2023-08-17T01:28:26;101774.13;;;19.81;100.00
65760;BME280;52496;51.082;5.066;2023-08-17T01:33:39;101759.59;;;19.75;100.00
65760;BME280;52496;51.082;5.066;2023-08-17T01:36:20;101763.59;;;19.73;100.00
65760;BME280;52496;51.082;5.066;2023-08-17T01:38:54;101764.63;;;19.71;100.00
65760;BME280;52496;51.082;5.066;2023-08-17T01:44:10;101767.78;;;19.68;100.00
65760;BME280;52496;51.082;5.066;2023-08-17T01:49:20;101765.31;;;19.67;100.00
65760;BME280;52496;51.082;5.066;2023-08-17T01:57:07;101762.19;;;19.63;100.00
65760;BME280;52496;51.082;5.066;2023-08-17T01:59:40;101763.00;;;19.64;100.00
65760;BME280;52496;51.082;5.066;2023-08-17T02:02:10;101754.03;;;19.63;100.00
65760;BME280;52496;51.082;5.066;2023-08-17T02:04:44;101750.91;;;19.60;100.00
65760;BME280;52496;51.082;5.066;2023-08-17T02:07:15;101752.22;;;19.57;100.00
65760;BME280;52496;51.082;5.066;2023-08-17T02:09:45;101752.88;;;19.53;100.00
65760;BME280;52496;51.082;5.066;2023-08-17T02:12:18;101753.53;;;19.48;100.00
65760;BME280;52496;51.082;5.066;2023-08-17T02:14:49;101754.00;;;19.45;100.00
65760;BME280;52496;51.082;5.066;2023-08-17T02:20:02;101755.75;;;19.33;100.00
65760;BME280;52496;51.082;5.066;2023-08-17T02:22:34;101756.19;;;19.30;100.00
65760;BME280;52496;51.082;5.066;2023-08-17T02:25:05;101749.97;;;19.22;100.00
65760;BME280;52496;51.082;5.066;2023-08-17T02:27:38;101751.47;;;19.18;100.00
65760;BME280;52496;51.082;5.066;2023-08-17T02:30:12;101754.38;;;19.17;100.00
65760;BME280;52496;51.082;5.066;2023-08-17T02:32:43;101751.72;;;19.10;100.00
65760;BME280;52496;51.082;5.066;2023-08-17T02:35:16;101740.13;;;19.03;100.00
65760;BME280;52496;51.082;5.066;2023-08-17T02:37:47;101740.53;;;19.00;100.00
65760;BME280;52496;51.082;5.066;2023-08-17T02:40:17;101740.78;;;18.92;100.00
65760;BME280;52496;51.082;5.066;2023-08-17T02:45:26;101744.38;;;18.86;100.00
65760;BME280;52496;51.082;5.066;2023-08-17T02:47:57;101740.66;;;18.80;100.00
65760;BME280;52496;51.082;5.066;2023-08-17T02:50:27;101747.56;;;18.76;100.00
65760;BME280;52496;51.082;5.066;2023-08-17T02:52:58;101749.00;;;18.78;100.00
65760;BME280;52496;51.082;5.066;2023-08-17T02:55:30;101742.34;;;18.74;100.00
65760;BME280;52496;51.082;5.066;2023-08-17T02:58:01;101748.59;;;18.82;100.00
65760;BME280;52496;51.082;5.066;2023-08-17T03:00:31;101744.81;;;18.83;100.00
65760;BME280;52496;51.082;5.066;2023-08-17T03:03:02;101741.47;;;18.80;100.00
65760;BME280;52496;51.082;5.066;2023-08-17T03:05:33;101739.41;;;18.83;100.00
65760;BME280;52496;51.082;5.066;2023-08-17T03:08:04;101738.97;;;18.86;100.00
65760;BME280;52496;51.082;5.066;2023-08-17T03:10:37;101740.19;;;18.90;100.00
65760;BME280;52496;51.082;5.066;2023-08-17T03:13:07;101752.66;;;18.97;100.00
65760;BME280;52496;51.082;5.066;2023-08-17T03:15:38;101741.41;;;18.94;100.00
65760;BME280;52496;51.082;5.066;2023-08-17T03:18:10;101742.63;;;18.98;100.00
65760;BME280;52496;51.082;5.066;2023-08-17T03:20:40;101744.91;;;19.01;100.00
65760;BME280;52496;51.082;5.066;2023-08-17T03:23:11;101747.41;;;19.02;100.00
65760;BME280;52496;51.082;5.066;2023-08-17T03:25:42;101746.59;;;19.02;100.00
65760;BME280;52496;51.082;5.066;2023-08-17T03:28:12;101754.88;;;19.07;100.00
65760;BME280;52496;51.082;5.066;2023-08-17T03:30:43;101752.16;;;19.07;100.00
65760;BME280;52496;51.082;5.066;2023-08-17T03:33:13;101747.38;;;19.09;100.00
65760;BME280;52496;51.082;5.066;2023-08-17T03:35:43;101749.63;;;19.12;100.00
65760;BME280;52496;51.082;5.066;2023-08-17T03:38:14;101753.41;;;19.11;100.00
65760;BME280;52496;51.082;5.066;2023-08-17T03:40:44;101750.47;;;19.13;100.00
65760;BME280;52496;51.082;5.066;2023-08-17T03:43:16;101750.47;;;19.13;100.00
65760;BME280;52496;51.082;5.066;2023-08-17T03:45:46;101743.41;;;19.12;100.00
65760;BME280;52496;51.082;5.066;2023-08-17T03:48:16;101746.31;;;19.10;100.00
65760;BME280;52496;51.082;5.066;2023-08-17T03:50:47;101739.22;;;19.09;100.00
65760;BME280;52496;51.082;5.066;2023-08-17T03:53:20;101739.22;;;19.09;100.00
65760;BME280;52496;51.082;5.066;2023-08-17T03:55:51;101742.16;;;19.08;100.00
65760;BME280;52496;51.082;5.066;2023-08-17T03:58:22;101748.44;;;19.08;100.00
65760;BME280;52496;51.082;5.066;2023-08-17T04:00:53;101739.22;;;19.09;100.00
65760;BME280;52496;51.082;5.066;2023-08-17T04:03:23;101744.66;;;19.09;100.00
65760;BME280;52496;51.082;5.066;2023-08-17T04:05:54;101753.84;;;19.08;100.00
65760;BME280;52496;51.082;5.066;2023-08-17T04:08:24;101751.34;;;19.07;100.00
65760;BME280;52496;51.082;5.066;2023-08-17T04:10:55;101760.53;;;19.06;100.00
65760;BME280;52496;51.082;5.066;2023-08-17T04:13:25;101774.91;;;19.06;100.00
65760;BME280;52496;51.082;5.066;2023-08-17T04:15:57;101770.56;;;19.05;100.00
65760;BME280;52496;51.082;5.066;2023-08-17T04:18:31;101768.88;;;19.04;100.00
65760;BME280;52496;51.082;5.066;2023-08-17T04:21:01;101772.63;;;19.03;100.00
65760;BME280;52496;51.082;5.066;2023-08-17T04:23:34;101765.59;;;18.95;100.00
65760;BME280;52496;51.082;5.066;2023-08-17T04:26:04;101759.56;;;18.93;100.00
65760;BME280;52496;51.082;5.066;2023-08-17T04:28:35;101766.84;;;18.93;100.00
65760;BME280;52496;51.082;5.066;2023-08-17T04:31:06;101777.25;;;18.96;100.00
65760;BME280;52496;51.082;5.066;2023-08-17T04:33:36;101770.63;;;18.92;100.00
65760;BME280;52496;51.082;5.066;2023-08-17T04:36:09;101769.56;;;18.93;100.00
65760;BME280;52496;51.082;5.066;2023-08-17T04:38:43;101782.03;;;19.00;100.00
65760;BME280;52496;51.082;5.066;2023-08-17T04:41:13;101770.81;;;18.97;100.00
65760;BME280;52496;51.082;5.066;2023-08-17T04:43:44;101778.09;;;18.96;100.00
65760;BME280;52496;51.082;5.066;2023-08-17T04:46:19;101779.56;;;18.92;100.00
65760;BME280;52496;51.082;5.066;2023-08-17T04:48:49;101780.81;;;18.96;100.00
65760;BME280;52496;51.082;5.066;2023-08-17T04:51:20;101774.53;;;18.96;100.00
65760;BME280;52496;51.082;5.066;2023-08-17T04:53:50;101769.56;;;18.93;100.00
65760;BME280;52496;51.082;5.066;2023-08-17T04:56:21;101772.69;;;18.90;100.00
65760;BME280;52496;51.082;5.066;2023-08-17T04:58:52;101783.97;;;18.93;100.00
65760;BME280;52496;51.082;5.066;2023-08-17T05:04:05;101775.22;;;18.91;100.00
65760;BME280;52496;51.082;5.066;2023-08-17T05:06:36;101772.69;;;18.90;100.00
65760;BME280;52496;51.082;5.066;2023-08-17T05:09:08;101779.38;;;18.94;100.00
65760;BME280;52496;51.082;5.066;2023-08-17T05:11:39;101778.31;;;18.95;100.00
65760;BME280;52496;51.082;5.066;2023-08-17T05:14:09;101783.53;;;18.96;100.00
65760;BME280;52496;51.082;5.066;2023-08-17T05:16:40;101778.94;;;18.97;100.00
65760;BME280;52496;51.082;5.066;2023-08-17T05:19:10;101781.22;;;19.00;100.00
65760;BME280;52496;51.082;5.066;2023-08-17T05:21:41;101778.97;;;18.90;100.00
65760;BME280;52496;51.082;5.066;2023-08-17T05:24:11;101786.47;;;18.88;100.00
65760;BME280;52496;51.082;5.066;2023-08-17T05:26:43;101778.56;;;18.87;100.00
65760;BME280;52496;51.082;5.066;2023-08-17T05:29:13;101793.16;;;18.86;100.00
65760;BME280;52496;51.082;5.066;2023-08-17T05:31:44;101781.09;;;18.82;100.00
65760;BME280;52496;51.082;5.066;2023-08-17T05:34:14;101787.97;;;18.84;100.00
65760;BME280;52496;51.082;5.066;2023-08-17T05:36:45;101777.97;;;18.85;100.00
65760;BME280;52496;51.082;5.066;2023-08-17T05:39:15;101795.25;;;18.90;100.00
65760;BME280;52496;51.082;5.066;2023-08-17T05:41:46;101784.78;;;18.94;100.00
65760;BME280;52496;51.082;5.066;2023-08-17T05:44:17;101786.06;;;18.91;100.00
65760;BME280;52496;51.082;5.066;2023-08-17T05:46:48;101787.09;;;18.90;100.00
65760;BME280;52496;51.082;5.066;2023-08-17T05:49:18;101773.75;;;18.89;100.00
65760;BME280;52496;51.082;5.066;2023-08-17T05:51:49;101782.66;;;18.96;100.00
65760;BME280;52496;51.082;5.066;2023-08-17T05:54:19;101784.78;;;18.94;100.00
65760;BME280;52496;51.082;5.066;2023-08-17T05:56:50;101781.44;;;18.92;100.00
65760;BME280;52496;51.082;5.066;2023-08-17T05:59:23;101793.13;;;18.99;100.00
65760;BME280;52496;51.082;5.066;2023-08-17T06:01:54;101797.47;;;19.00;100.00
65760;BME280;52496;51.082;5.066;2023-08-17T06:04:24;101795.97;;;19.04;100.00
65760;BME280;52496;51.082;5.066;2023-08-17T06:06:55;101804.75;;;19.06;100.00
65760;BME280;52496;51.082;5.066;2023-08-17T06:09:26;101805.34;;;19.08;100.00
65760;BME280;52496;51.082;5.066;2023-08-17T06:11:57;101798.09;;;19.02;100.00
65760;BME280;52496;51.082;5.066;2023-08-17T06:14:27;101798.09;;;19.02;100.00
65760;BME280;52496;51.082;5.066;2023-08-17T06:16:58;101799.31;;;19.06;100.00
65760;BME280;52496;51.082;5.066;2023-08-17T06:19:31;101799.31;;;19.06;100.00
65760;BME280;52496;51.082;5.066;2023-08-17T06:22:01;101792.25;;;19.05;100.00
65760;BME280;52496;51.082;5.066;2023-08-17T06:24:32;101799.09;;;19.08;100.00
65760;BME280;52496;51.082;5.066;2023-08-17T06:27:02;101801.59;;;19.09;100.00
65760;BME280;52496;51.082;5.066;2023-08-17T06:29:33;101798.00;;;19.15;100.00
65760;BME280;52496;51.082;5.066;2023-08-17T06:32:04;101807.19;;;19.14;100.00
65760;BME280;52496;51.082;5.066;2023-08-17T06:34:34;101798.06;;;19.09;100.00
65760;BME280;52496;51.082;5.066;2023-08-17T06:37:05;101793.84;;;19.13;100.00
65760;BME280;52496;51.082;5.066;2023-08-17T06:39:35;101788.38;;;19.19;100.00
65760;BME280;52496;51.082;5.066;2023-08-17T06:42:06;101793.94;;;19.31;100.00
65760;BME280;52496;51.082;5.066;2023-08-17T06:44:37;101787.00;;;19.35;100.00
65760;BME280;52496;51.082;5.066;2023-08-17T06:47:07;101792.78;;;19.45;100.00
65760;BME280;52496;51.082;5.066;2023-08-17T06:49:38;101802.19;;;19.43;100.00
65760;BME280;52496;51.082;5.066;2023-08-17T06:52:08;101796.78;;;19.43;100.00
65760;BME280;52496;51.082;5.066;2023-08-17T06:54:39;101802.03;;;19.38;100.00
65760;BME280;52496;51.082;5.066;2023-08-17T06:57:10;101805.13;;;19.41;100.00
65760;BME280;52496;51.082;5.066;2023-08-17T06:59:40;101816.97;;;19.47;100.00
65760;BME280;52496;51.082;5.066;2023-08-17T07:02:10;101825.72;;;19.49;100.00
65760;BME280;52496;51.082;5.066;2023-08-17T07:04:41;101823.84;;;19.49;100.00
65760;BME280;52496;51.082;5.066;2023-08-17T07:07:11;101823.63;;;19.51;100.00
65760;BME280;52496;51.082;5.066;2023-08-17T07:09:42;101831.53;;;19.53;100.00
65760;BME280;52496;51.082;5.066;2023-08-17T07:12:12;101832.75;;;19.57;100.00
65760;BME280;52496;51.082;5.066;2023-08-17T07:14:45;101835.66;;;19.62;100.00
65760;BME280;52496;51.082;5.066;2023-08-17T07:17:16;101832.94;;;19.62;100.00
65760;BME280;52496;51.082;5.066;2023-08-17T07:19:46;101825.63;;;19.62;100.00
65760;BME280;52496;51.082;5.066;2023-08-17T07:22:17;101829.00;;;19.64;100.00
65760;BME280;52496;51.082;5.066;2023-08-17T07:24:47;101830.44;;;19.67;100.00
65760;BME280;52496;51.082;5.066;2023-08-17T07:27:18;101827.72;;;19.67;100.00
65760;BME280;52496;51.082;5.066;2023-08-17T07:29:48;101825.22;;;19.65;100.00
65760;BME280;52496;51.082;5.066;2023-08-17T07:32:18;101821.84;;;19.70;100.00
65760;BME280;52496;51.082;5.066;2023-08-17T07:34:49;101829.75;;;19.71;100.00
65760;BME280;52496;51.082;5.066;2023-08-17T07:37:19;101832.88;;;19.75;100.00
65760;BME280;52496;51.082;5.066;2023-08-17T07:39:50;101819.69;;;19.79;100.00
65760;BME280;52496;51.082;5.066;2023-08-17T07:42:20;101826.56;;;19.81;100.00
65760;BME280;52496;51.082;5.066;2023-08-17T07:44:51;101831.69;;;19.89;100.00
65760;BME280;52496;51.082;5.066;2023-08-17T07:47:21;101824.59;;;20.13;100.00
65760;BME280;52496;51.082;5.066;2023-08-17T07:49:52;101821.59;;;20.40;100.00
65760;BME280;52496;51.082;5.066;2023-08-17T07:52:22;101827.22;;;20.64;100.00
65760;BME280;52496;51.082;5.066;2023-08-17T07:54:52;101817.34;;;20.81;100.00
65760;BME280;52496;51.082;5.066;2023-08-17T07:57:23;101822.09;;;21.04;100.00
65760;BME280;52496;51.082;5.066;2023-08-17T07:59:54;101817.41;;;21.23;100.00
65760;BME280;52496;51.082;5.066;2023-08-17T08:02:24;101811.94;;;21.41;100.00
65760;BME280;52496;51.082;5.066;2023-08-17T08:04:55;101809.03;;;21.66;100.00
65760;BME280;52496;51.082;5.066;2023-08-17T08:07:25;101799.44;;;21.87;100.00
65760;BME280;52496;51.082;5.066;2023-08-17T08:09:56;101802.19;;;22.11;98.99
65760;BME280;52496;51.082;5.066;2023-08-17T08:12:27;101798.25;;;22.30;99.89
65760;BME280;52496;51.082;5.066;2023-08-17T08:14:57;101801.31;;;22.45;97.67
65760;BME280;52496;51.082;5.066;2023-08-17T08:17:28;101806.88;;;22.51;97.02
65760;BME280;52496;51.082;5.066;2023-08-17T08:20:02;101813.16;;;22.51;95.85
65760;BME280;52496;51.082;5.066;2023-08-17T08:22:32;101815.06;;;22.51;95.82
65760;BME280;52496;51.082;5.066;2023-08-17T08:25:03;101813.41;;;22.50;97.31
65760;BME280;52496;51.082;5.066;2023-08-17T08:27:33;101815.41;;;22.54;97.57
65760;BME280;52496;51.082;5.066;2023-08-17T08:30:06;101810.66;;;22.61;94.98
65760;BME280;52496;51.082;5.066;2023-08-17T08:32:45;101810.44;;;22.51;93.97
65760;BME280;52496;51.082;5.066;2023-08-17T08:35:15;101808.19;;;22.36;95.00
65760;BME280;52496;51.082;5.066;2023-08-17T08:37:46;101801.25;;;22.29;96.52
65760;BME280;52496;51.082;5.066;2023-08-17T08:40:17;101809.63;;;22.27;96.51
65760;BME280;52496;51.082;5.066;2023-08-17T08:42:47;101802.41;;;22.21;96.99
65760;BME280;52496;51.082;5.066;2023-08-17T08:45:18;101804.06;;;22.10;97.68
65760;BME280;52496;51.082;5.066;2023-08-17T08:47:49;101808.31;;;22.06;97.96
65760;BME280;52496;51.082;5.066;2023-08-17T08:50:21;101800.53;;;22.10;96.96
65760;BME280;52496;51.082;5.066;2023-08-17T08:52:58;101798.28;;;22.18;98.39
65760;BME280;52496;51.082;5.066;2023-08-17T08:55:37;101801.94;;;22.24;98.31
65760;BME280;52496;51.082;5.066;2023-08-17T08:58:08;101797.78;;;22.33;98.15
65760;BME280;52496;51.082;5.066;2023-08-17T09:00:39;101792.56;;;22.43;97.47
65760;BME280;52496;51.082;5.066;2023-08-17T09:03:10;101797.06;;;22.50;96.14
65760;BME280;52496;51.082;5.066;2023-08-17T09:05:42;101787.13;;;22.43;94.55
65760;BME280;52496;51.082;5.066;2023-08-17T09:08:18;101794.69;;;22.41;96.53
65760;BME280;52496;51.082;5.066;2023-08-17T09:10:49;101792.44;;;22.50;96.29
65760;BME280;52496;51.082;5.066;2023-08-17T09:13:20;101796.66;;;22.58;95.04
65760;BME280;52496;51.082;5.066;2023-08-17T09:15:50;101803.19;;;22.57;94.50
65760;BME280;52496;51.082;5.066;2023-08-17T09:18:21;101802.50;;;22.50;94.40
65760;BME280;52496;51.082;5.066;2023-08-17T09:20:51;101797.19;;;22.43;95.33
65760;BME280;52496;51.082;5.066;2023-08-17T09:23:22;101793.72;;;22.48;95.66
65760;BME280;52496;51.082;5.066;2023-08-17T09:25:52;101797.41;;;22.53;95.93
65760;BME280;52496;51.082;5.066;2023-08-17T09:28:28;101801.53;;;22.56;93.28
65760;BME280;52496;51.082;5.066;2023-08-17T09:31:01;101791.47;;;22.56;95.91
65760;BME280;52496;51.082;5.066;2023-08-17T09:33:33;101792.06;;;22.58;94.73
65760;BME280;52496;51.082;5.066;2023-08-17T09:36:05;101792.13;;;22.63;94.97
65760;BME280;52496;51.082;5.066;2023-08-17T09:38:36;101792.59;;;22.72;94.42
65760;BME280;52496;51.082;5.066;2023-08-17T09:41:08;101789.38;;;22.75;94.65
65760;BME280;52496;51.082;5.066;2023-08-17T09:43:38;101786.28;;;22.83;93.72
65760;BME280;52496;51.082;5.066;2023-08-17T09:46:09;101785.28;;;22.89;93.22
65760;BME280;52496;51.082;5.066;2023-08-17T09:48:39;101789.22;;;22.82;92.69
65760;BME280;52496;51.082;5.066;2023-08-17T09:51:18;101775.84;;;22.80;94.00
65760;BME280;52496;51.082;5.066;2023-08-17T09:53:52;101767.66;;;22.80;93.65
65760;BME280;52496;51.082;5.066;2023-08-17T09:56:26;101766.50;;;23.05;93.35
65760;BME280;52496;51.082;5.066;2023-08-17T09:58:57;101769.50;;;23.37;91.64
65760;BME280;52496;51.082;5.066;2023-08-17T10:01:28;101766.22;;;23.52;90.59
65760;BME280;52496;51.082;5.066;2023-08-17T10:03:59;101777.47;;;23.55;89.06
65760;BME280;52496;51.082;5.066;2023-08-17T10:06:33;101778.13;;;23.46;90.51
65760;BME280;52496;51.082;5.066;2023-08-17T10:09:07;101785.16;;;23.42;89.26
65760;BME280;52496;51.082;5.066;2023-08-17T10:11:39;101780.34;;;23.32;91.06
65760;BME280;52496;51.082;5.066;2023-08-17T10:14:21;101787.72;;;23.31;90.29
65760;BME280;52496;51.082;5.066;2023-08-17T10:16:57;101778.69;;;23.31;91.02
65760;BME280;52496;51.082;5.066;2023-08-17T10:19:37;101778.94;;;23.29;89.93
65760;BME280;52496;51.082;5.066;2023-08-17T10:22:27;101780.31;;;23.15;89.51
65760;BME280;52496;51.082;5.066;2023-08-17T10:25:03;101776.75;;;22.98;91.15
65760;BME280;52496;51.082;5.066;2023-08-17T10:27:36;101786.69;;;23.04;91.82
65760;BME280;52496;51.082;5.066;2023-08-17T10:30:10;101787.25;;;23.06;91.14
65760;BME280;52496;51.082;5.066;2023-08-17T10:32:41;101784.34;;;22.96;91.48
65760;BME280;52496;51.082;5.066;2023-08-17T10:35:15;101776.63;;;22.93;91.58
65760;BME280;52496;51.082;5.066;2023-08-17T10:37:46;101779.97;;;22.95;92.58
65760;BME280;52496;51.082;5.066;2023-08-17T10:40:17;101788.34;;;23.05;92.35
65760;BME280;52496;51.082;5.066;2023-08-17T10:42:55;101787.50;;;23.04;91.34
65760;BME280;52496;51.082;5.066;2023-08-17T10:45:33;101777.44;;;23.05;91.76
65760;BME280;52496;51.082;5.066;2023-08-17T10:50:39;101775.63;;;23.10;90.43
65760;BME280;52496;51.082;5.066;2023-08-17T10:53:11;101783.53;;;23.12;92.20
65760;BME280;52496;51.082;5.066;2023-08-17T10:55:45;101784.06;;;23.26;92.67
65760;BME280;52496;51.082;5.066;2023-08-17T10:58:15;101781.94;;;23.45;91.80
65760;BME280;52496;51.082;5.066;2023-08-17T11:00:46;101786.50;;;23.56;89.50
65760;BME280;52496;51.082;5.066;2023-08-17T11:03:22;101782.28;;;23.65;89.08
65760;BME280;52496;51.082;5.066;2023-08-17T11:05:54;101780.47;;;23.71;89.37
65760;BME280;52496;51.082;5.066;2023-08-17T11:08:32;101784.28;;;23.70;87.98
65760;BME280;52496;51.082;5.066;2023-08-17T11:11:03;101791.63;;;23.69;88.50
65760;BME280;52496;51.082;5.066;2023-08-17T11:13:35;101788.72;;;23.76;87.45
65760;BME280;52496;51.082;5.066;2023-08-17T11:16:07;101784.25;;;23.87;86.52
65760;BME280;52496;51.082;5.066;2023-08-17T11:18:38;101790.97;;;23.96;86.74
65760;BME280;52496;51.082;5.066;2023-08-17T11:21:09;101788.34;;;24.06;86.40
65760;BME280;52496;51.082;5.066;2023-08-17T11:23:40;101790.66;;;24.14;85.98
65760;BME280;52496;51.082;5.066;2023-08-17T11:26:11;101795.19;;;24.25;85.96
65760;BME280;52496;51.082;5.066;2023-08-17T11:28:41;101795.31;;;24.36;85.87
65760;BME280;52496;51.082;5.066;2023-08-17T11:31:13;101795.25;;;24.31;84.88
65760;BME280;52496;51.082;5.066;2023-08-17T11:33:45;101795.75;;;24.27;85.33
65760;BME280;52496;51.082;5.066;2023-08-17T11:36:16;101790.94;;;24.35;86.07
65760;BME280;52496;51.082;5.066;2023-08-17T11:38:47;101798.72;;;24.43;85.25
65760;BME280;52496;51.082;5.066;2023-08-17T11:41:17;101792.19;;;24.44;83.52
65760;BME280;52496;51.082;5.066;2023-08-17T11:43:49;101792.44;;;24.42;84.36
65760;BME280;52496;51.082;5.066;2023-08-17T11:46:20;101792.28;;;24.32;84.29
65760;BME280;52496;51.082;5.066;2023-08-17T11:48:52;101792.59;;;24.36;83.60
65760;BME280;52496;51.082;5.066;2023-08-17T11:51:30;101793.25;;;24.43;83.79
65760;BME280;52496;51.082;5.066;2023-08-17T11:54:01;101787.41;;;24.56;83.51
65760;BME280;52496;51.082;5.066;2023-08-17T11:56:34;101790.78;;;24.63;82.34
65760;BME280;52496;51.082;5.066;2023-08-17T11:59:09;101795.16;;;24.64;83.77
65760;BME280;52496;51.082;5.066;2023-08-17T12:01:44;101793.41;;;24.80;83.13
65760;BME280;52496;51.082;5.066;2023-08-17T12:04:15;101795.31;;;24.80;81.74
65760;BME280;52496;51.082;5.066;2023-08-17T12:06:45;101797.44;;;24.72;81.84
65760;BME280;52496;51.082;5.066;2023-08-17T12:09:15;101791.88;;;24.62;83.14
65760;BME280;52496;51.082;5.066;2023-08-17T12:11:46;101791.78;;;24.57;82.49
65760;BME280;52496;51.082;5.066;2023-08-17T12:14:16;101791.47;;;24.54;83.37
65760;BME280;52496;51.082;5.066;2023-08-17T12:16:48;101785.94;;;24.48;82.95
65760;BME280;52496;51.082;5.066;2023-08-17T12:19:21;101786.00;;;24.54;83.29
65760;BME280;52496;51.082;5.066;2023-08-17T12:21:54;101788.28;;;24.62;82.54
65760;BME280;52496;51.082;5.066;2023-08-17T12:24:26;101775.97;;;24.59;81.66
65760;BME280;52496;51.082;5.066;2023-08-17T12:26:57;101778.63;;;24.54;83.82
65760;BME280;52496;51.082;5.066;2023-08-17T12:29:29;101780.75;;;24.47;83.96
65760;BME280;52496;51.082;5.066;2023-08-17T12:32:02;101779.66;;;24.48;84.43
65760;BME280;52496;51.082;5.066;2023-08-17T12:34:33;101781.81;;;24.46;85.12
65760;BME280;52496;51.082;5.066;2023-08-17T12:37:03;101782.75;;;24.35;83.58
65760;BME280;52496;51.082;5.066;2023-08-17T12:39:34;101781.03;;;24.29;83.89
65760;BME280;52496;51.082;5.066;2023-08-17T12:42:04;101783.41;;;24.25;84.81
65760;BME280;52496;51.082;5.066;2023-08-17T12:44:35;101782.03;;;24.22;86.09
65760;BME280;52496;51.082;5.066;2023-08-17T12:47:05;101781.16;;;24.17;85.08
65760;BME280;52496;51.082;5.066;2023-08-17T12:49:36;101770.13;;;24.12;86.19
65760;BME280;52496;51.082;5.066;2023-08-17T12:52:07;101778.53;;;24.05;86.33
65760;BME280;52496;51.082;5.066;2023-08-17T12:54:37;101764.53;;;24.01;86.91
65760;BME280;52496;51.082;5.066;2023-08-17T12:57:08;101769.72;;;24.03;86.41
65760;BME280;52496;51.082;5.066;2023-08-17T12:59:38;101772.78;;;24.07;87.31
65760;BME280;52496;51.082;5.066;2023-08-17T13:02:09;101764.91;;;24.10;87.55
65760;BME280;52496;51.082;5.066;2023-08-17T13:04:40;101762.00;;;24.17;87.03
65760;BME280;52496;51.082;5.066;2023-08-17T13:07:10;101756.88;;;24.20;85.35
65760;BME280;52496;51.082;5.066;2023-08-17T13:09:41;101759.53;;;24.15;86.21
65760;BME280;52496;51.082;5.066;2023-08-17T13:12:12;101754.06;;;24.15;86.77
65760;BME280;52496;51.082;5.066;2023-08-17T13:14:43;101748.84;;;24.36;87.96
65760;BME280;52496;51.082;5.066;2023-08-17T13:17:13;101755.66;;;24.33;84.94
65760;BME280;52496;51.082;5.066;2023-08-17T13:19:46;101751.91;;;24.39;85.48
65760;BME280;52496;51.082;5.066;2023-08-17T13:22:17;101753.41;;;24.47;85.13
65760;BME280;52496;51.082;5.066;2023-08-17T13:24:47;101750.84;;;24.62;85.22
65760;BME280;52496;51.082;5.066;2023-08-17T13:27:18;101758.53;;;24.65;84.29
65760;BME280;52496;51.082;5.066;2023-08-17T13:29:48;101746.75;;;24.65;84.16
65760;BME280;52496;51.082;5.066;2023-08-17T13:32:18;101762.84;;;24.61;83.51
65760;BME280;52496;51.082;5.066;2023-08-17T13:34:49;101756.84;;;24.64;84.06